KDMO

Details ICAO KDMO
Name SEDALIA MEM
Region United States
Timezone America/Chicago (UTC-6.0)
Plans Departing 1
Arriving 2
Stats Elevation 909 ft / 277 m (AMSL)
Location 38.706880° -93.176821°
Runways 2
Magnetic Variation 0.667° E
Sunrise 2017-12-17 13:26:25 UTC / 2017-12-17 07:26:25 Local
Sunset 2017-12-17 22:54:13 UTC / 2017-12-17 16:54:13 Local
Advertisement - Login to hide

Runways

ID Width Length Bearing (true) Bearing (mag) Surface Threshold Offset Overrun Length
05 50 ft / 15 m 3,517 ft / 1,072 m 54.35° 53.68° Asphalt 0 ft / 0 m 0 ft / 0 m
18 100 ft / 30 m 5,512 ft / 1,680 m 181.68° 181.01° Concrete 0 ft / 0 m 0 ft / 0 m
23 50 ft / 15 m 3,517 ft / 1,072 m 234.36° 233.69° Asphalt 0 ft / 0 m 0 ft / 0 m
36 100 ft / 30 m 5,512 ft / 1,680 m 1.68° 1.01° Concrete 0 ft / 0 m 0 ft / 0 m

Map

Weather


0- 5 10 15 20 25 30 35+ Temperature / ° C

Clouds and Precipitation
Forecast for 2017-12-17 12:00 UTC. Updated an hour ago

Ground ~20,000 ft ~40,000 ft Winds

METAR

KDMO 170753Z AUTO 19007KT 10SM CLR 09/M02 A3002 RMK AO2 SLP166 T00941022 $

TAF

Not found

Frequencies

Recorded 120.52 MHz ASOS
Approach 127.45 MHz WHITEMAN APP
Unicom 122.80 MHz CTAF/UNICOM
Departure 125.92 MHz WHITEMAN DEP
Warning: Do not use this data for real-world aviation or navigation. No guarantee of current accuracy is given.